Time;durP1;ratioP1;P1;durP2;ratioP2;P2;SDS_P1;SDS_P2;PMS_P1;PMS_P2;Temp;Humidity;BMP_temperature;BMP_pressure;BME280_temperature;BME280_humidity;BME280_pressure;Samples;Min_cycle;Max_cycle;Signal;HPM_P1;HPM_P2
2022/03/09 00:01:58;;;;;;;7.27;4.70;;;1.50;99.90;;;;;;5016351;28;20037;-81
2022/03/09 00:04:25;;;;;;;4.30;3.60;;;1.50;99.90;;;;;;5016499;28;20110;-81
2022/03/09 00:06:50;;;;;;;6.17;4.77;;;1.40;99.90;;;;;;5033031;28;20283;-81
2022/03/09 00:09:16;;;;;;;6.37;4.00;;;1.40;99.90;;;;;;5033423;28;20312;-81
2022/03/09 00:11:42;;;;;;;7.43;4.30;;;1.30;99.90;;;;;;4984217;28;20025;-81
2022/03/09 00:14:08;;;;;;;6.30;4.23;;;1.30;99.90;;;;;;5032641;28;20033;-80
2022/03/09 00:16:34;;;;;;;7.47;4.27;;;1.20;99.90;;;;;;4999260;28;20287;-81
2022/03/09 00:19:00;;;;;;;5.40;4.03;;;1.30;99.90;;;;;;5047549;28;20064;-81
2022/03/09 00:21:26;;;;;;;6.03;4.30;;;1.30;99.90;;;;;;5032725;28;20033;-80
2022/03/09 00:23:52;;;;;;;6.23;3.97;;;1.20;99.90;;;;;;5032805;28;20314;-81
2022/03/09 00:26:17;;;;;;;7.90;4.33;;;1.20;99.90;;;;;;5016309;28;20099;-80
2022/03/09 00:28:43;;;;;;;6.40;4.10;;;1.20;99.90;;;;;;5016792;28;20044;-81
2022/03/09 00:31:09;;;;;;;6.07;4.40;;;1.30;99.90;;;;;;5000194;28;20037;-81
2022/03/09 00:33:35;;;;;;;6.03;3.83;;;1.20;99.90;;;;;;5017273;28;20037;-81
2022/03/09 00:36:01;;;;;;;7.83;4.40;;;1.30;99.90;;;;;;5000351;28;20071;-81
2022/03/09 00:38:27;;;;;;;6.73;4.57;;;1.30;99.90;;;;;;5016276;28;20052;-80
2022/03/09 00:40:53;;;;;;;7.93;4.10;;;1.30;99.90;;;;;;5000239;28;20279;-80
2022/03/09 00:43:20;;;;;;;6.20;4.50;;;1.30;99.90;;;;;;5001531;28;20052;-80
2022/03/09 00:45:46;;;;;;;6.10;4.40;;;1.30;99.90;;;;;;5034046;28;20045;-80
2022/03/09 00:48:12;;;;;;;7.00;4.00;;;1.40;99.90;;;;;;5017280;28;20037;-81
2022/03/09 00:50:38;;;;;;;7.33;4.20;;;1.30;99.90;;;;;;5017228;28;20650;-81
2022/03/09 00:53:03;;;;;;;7.17;4.00;;;1.30;99.90;;;;;;5016960;28;20037;-81
2022/03/09 00:55:29;;;;;;;7.23;4.70;;;1.30;99.90;;;;;;5017288;28;20064;-81
2022/03/09 00:57:55;;;;;;;5.07;3.90;;;1.20;99.90;;;;;;5017308;28;20040;-80
2022/03/09 01:00:21;;;;;;;6.20;4.27;;;1.20;99.90;;;;;;4984200;28;20378;-80
2022/03/09 01:02:47;;;;;;;4.83;4.10;;;1.10;99.90;;;;;;5012260;28;20052;-81
2022/03/09 01:05:14;;;;;;;8.27;4.70;;;1.10;99.90;;;;;;5010956;28;20093;-80
2022/03/09 01:07:40;;;;;;;6.57;4.10;;;1.00;99.90;;;;;;5016779;28;20477;-81
2022/03/09 01:10:06;;;;;;;8.23;4.57;;;1.00;99.90;;;;;;5000306;28;20371;-80
2022/03/09 01:12:32;;;;;;;6.83;4.50;;;1.00;99.90;;;;;;5000599;28;20291;-81
2022/03/09 01:14:58;;;;;;;7.70;4.73;;;0.90;99.90;;;;;;5000827;28;20278;-81
2022/03/09 01:17:26;;;;;;;7.40;4.77;;;0.90;99.90;;;;;;4983935;28;20287;-80
2022/03/09 01:19:52;;;;;;;6.87;4.53;;;0.90;99.90;;;;;;5016410;28;20043;-81
2022/03/09 01:22:18;;;;;;;6.33;4.90;;;0.90;99.90;;;;;;5032424;28;20279;-81
2022/03/09 01:24:44;;;;;;;8.70;4.47;;;1.00;99.90;;;;;;5016157;28;20296;-81
2022/03/09 01:27:10;;;;;;;7.47;4.70;;;0.80;99.90;;;;;;5032882;28;20084;-81
2022/03/09 01:29:36;;;;;;;8.03;4.93;;;0.90;99.90;;;;;;5033209;28;20045;-81
2022/03/09 01:32:01;;;;;;;6.97;5.30;;;0.90;99.90;;;;;;5033148;28;20120;-80
2022/03/09 01:34:27;;;;;;;7.10;4.63;;;0.90;99.90;;;;;;5051070;28;20047;-81
2022/03/09 01:36:53;;;;;;;7.47;4.70;;;0.90;99.90;;;;;;5047709;28;20504;-80
2022/03/09 01:39:20;;;;;;;8.63;5.23;;;0.90;99.90;;;;;;5017094;28;20051;-81
2022/03/09 01:41:46;;;;;;;8.70;5.10;;;0.80;99.90;;;;;;5017337;28;20072;-80
2022/03/09 01:44:20;;;;;;;8.13;5.30;;;0.80;99.90;;;;;;5001750;28;20279;-78
2022/03/09 01:46:48;;;;;;;7.10;4.53;;;0.90;99.90;;;;;;5046543;28;20283;-79
2022/03/09 01:49:14;;;;;;;7.17;4.70;;;0.90;99.90;;;;;;5030139;28;20315;-80
2022/03/09 01:51:44;;;;;;;7.57;5.43;;;0.90;99.90;;;;;;5032546;28;20283;-80
2022/03/09 01:54:10;;;;;;;7.43;4.90;;;0.90;99.90;;;;;;5033605;28;20287;-81
2022/03/09 01:56:37;;;;;;;6.03;4.83;;;0.90;99.90;;;;;;5025769;28;20334;-80
2022/03/09 01:59:04;;;;;;;8.40;5.03;;;0.80;99.90;;;;;;5051628;28;20279;-80
2022/03/09 02:01:31;;;;;;;8.83;5.23;;;0.70;99.90;;;;;;5033654;28;20287;-80
2022/03/09 02:04:01;;;;;;;6.20;4.83;;;0.70;99.90;;;;;;5016914;28;20739;-80
2022/03/09 02:06:27;;;;;;;9.47;5.70;;;0.80;99.90;;;;;;5016176;28;20381;-81
2022/03/09 02:11:39;;;;;;;9.60;5.77;;;0.70;99.90;;;;;;5006680;28;20045;-81
2022/03/09 02:14:05;;;;;;;10.53;5.47;;;0.70;99.90;;;;;;5030042;28;20276;-80
2022/03/09 02:16:31;;;;;;;7.57;5.83;;;0.70;99.90;;;;;;5032304;28;20294;-81
2022/03/09 02:18:59;;;;;;;8.47;5.57;;;0.60;99.90;;;;;;5016746;28;20045;-80
2022/03/09 02:21:28;;;;;;;9.03;5.83;;;0.60;99.90;;;;;;5049780;28;20029;-81
2022/03/09 02:23:55;;;;;;;8.27;5.27;;;0.60;99.90;;;;;;5027339;28;20290;-80
2022/03/09 02:26:21;;;;;;;9.20;5.50;;;0.60;99.90;;;;;;5049816;28;20299;-81
2022/03/09 02:28:47;;;;;;;9.50;5.90;;;0.60;99.90;;;;;;5047706;28;20279;-81
2022/03/09 02:31:14;;;;;;;8.53;5.53;;;0.60;99.90;;;;;;5016913;28;20048;-80
2022/03/09 02:33:48;;;;;;;10.23;5.90;;;0.60;99.90;;;;;;5023144;28;20299;-82
2022/03/09 02:36:14;;;;;;;10.73;6.07;;;0.50;99.90;;;;;;5014341;28;20291;-81
2022/03/09 02:38:40;;;;;;;8.27;5.73;;;0.50;99.90;;;;;;5016949;28;20283;-81
2022/03/09 02:41:06;;;;;;;8.77;5.57;;;0.50;99.90;;;;;;5033690;28;20116;-80
2022/03/09 02:43:31;;;;;;;10.33;5.70;;;0.40;99.90;;;;;;5033148;28;20033;-81
2022/03/09 02:45:57;;;;;;;7.40;5.47;;;0.40;99.90;;;;;;5017065;28;20048;-81
2022/03/09 02:48:23;;;;;;;11.17;5.30;;;0.30;99.90;;;;;;5032172;28;20045;-81
2022/03/09 02:50:48;;;;;;;14.93;5.80;;;0.40;99.90;;;;;;5006844;28;20064;-81
2022/03/09 02:53:14;;;;;;;8.43;5.70;;;0.40;99.90;;;;;;5019894;28;20516;-80
2022/03/09 02:55:40;;;;;;;10.87;6.37;;;0.30;99.90;;;;;;5019287;28;20036;-81
2022/03/09 02:58:06;;;;;;;8.73;5.70;;;0.20;99.90;;;;;;5036312;28;20037;-80
2022/03/09 03:00:31;;;;;;;9.67;6.20;;;0.10;99.90;;;;;;5036215;28;20040;-80
2022/03/09 03:02:57;;;;;;;8.33;5.73;;;0.20;99.90;;;;;;5036357;28;20029;-81
2022/03/09 03:05:23;;;;;;;9.87;5.80;;;0.10;99.90;;;;;;5036063;28;20551;-81
2022/03/09 03:07:49;;;;;;;10.70;5.93;;;0.10;99.90;;;;;;5003166;28;20037;-81
2022/03/09 03:10:14;;;;;;;8.73;5.60;;;0.20;99.90;;;;;;5018810;28;20390;-81
2022/03/09 03:12:40;;;;;;;8.80;6.07;;;0.00;99.90;;;;;;5020354;28;20037;-80
2022/03/09 03:15:06;;;;;;;11.50;6.90;;;0.00;99.90;;;;;;5003556;28;20048;-81
2022/03/09 03:17:36;;;;;;;8.83;6.07;;;0.00;99.90;;;;;;5003193;28;20043;-81
2022/03/09 03:20:04;;;;;;;9.30;6.13;;;0.10;99.90;;;;;;5036139;28;20330;-81
2022/03/09 03:22:29;;;;;;;10.20;6.00;;;0.00;99.90;;;;;;5018685;28;20300;-80
2022/03/09 03:24:55;;;;;;;9.50;5.97;;;0.00;99.90;;;;;;5019814;28;20288;-81
2022/03/09 03:27:21;;;;;;;9.37;6.00;;;0.00;99.90;;;;;;5035759;28;20547;-81
2022/03/09 03:29:47;;;;;;;10.73;6.37;;;0.00;99.90;;;;;;5023621;28;20087;-81
2022/03/09 03:32:12;;;;;;;10.57;6.00;;;0.00;99.90;;;;;;4998122;28;20488;-81
2022/03/09 03:34:38;;;;;;;9.70;6.13;;;0.00;99.90;;;;;;5019385;28;20098;-82
2022/03/09 03:37:04;;;;;;;10.10;6.07;;;0.00;99.90;;;;;;5018695;28;20740;-81
2022/03/09 03:39:30;;;;;;;14.30;6.47;;;0.10;99.90;;;;;;5016905;28;20041;-81
2022/03/09 03:41:55;;;;;;;10.90;6.33;;;0.00;99.90;;;;;;5043294;28;20033;-81
2022/03/09 03:44:21;;;;;;;9.03;6.17;;;0.10;99.90;;;;;;5043550;28;20369;-81
2022/03/09 03:46:47;;;;;;;9.63;6.57;;;0.10;99.90;;;;;;5018794;28;20047;-81
2022/03/09 03:49:12;;;;;;;9.33;6.37;;;0.00;99.90;;;;;;5019304;28;20504;-80
2022/03/09 03:51:38;;;;;;;12.33;6.07;;;0.10;99.90;;;;;;5045995;28;20513;-81
2022/03/09 03:54:04;;;;;;;9.00;6.33;;;0.10;99.90;;;;;;5019089;28;20075;-80
2022/03/09 03:56:30;;;;;;;10.83;6.50;;;0.10;99.90;;;;;;4996490;28;20088;-81
2022/03/09 03:58:55;;;;;;;9.73;6.63;;;0.10;99.90;;;;;;5012533;28;20033;-81
2022/03/09 04:01:21;;;;;;;11.17;6.30;;;0.10;99.90;;;;;;5017507;28;20041;-81
2022/03/09 04:03:47;;;;;;;9.90;6.60;;;0.10;99.90;;;;;;5000043;28;20045;-81
2022/03/09 04:06:12;;;;;;;11.57;6.83;;;0.10;99.90;;;;;;5017778;28;20038;-81
2022/03/09 04:08:38;;;;;;;11.50;6.87;;;0.00;99.90;;;;;;5017460;28;20037;-81
2022/03/09 04:11:04;;;;;;;13.00;7.07;;;0.00;99.90;;;;;;5017260;28;20047;-82
2022/03/09 04:13:30;;;;;;;14.03;7.43;;;0.00;99.90;;;;;;5018497;28;20040;-81
2022/03/09 04:15:56;;;;;;;11.33;6.90;;;0.00;99.90;;;;;;5018254;28;20146;-81
2022/03/09 04:18:21;;;;;;;11.90;6.67;;;0.10;99.90;;;;;;5001968;28;20040;-81
2022/03/09 04:20:47;;;;;;;11.17;7.00;;;0.10;99.90;;;;;;5018840;28;20321;-82
2022/03/09 04:23:13;;;;;;;12.37;7.23;;;0.10;99.90;;;;;;5002905;28;20037;-78
2022/03/09 04:25:39;;;;;;;12.00;6.77;;;0.00;99.90;;;;;;5005050;28;20044;-78
2022/03/09 04:28:05;;;;;;;12.97;6.80;;;0.10;99.90;;;;;;5019509;28;20111;-80
2022/03/09 04:30:32;;;;;;;10.63;7.03;;;0.10;99.90;;;;;;5019094;28;20404;-81
2022/03/09 04:32:58;;;;;;;12.60;7.10;;;0.20;99.90;;;;;;5053529;28;20280;-81
2022/03/09 04:35:24;;;;;;;11.47;7.03;;;0.20;99.90;;;;;;5019432;28;20312;-81
2022/03/09 04:37:50;;;;;;;12.17;7.13;;;0.20;99.90;;;;;;5001840;28;20363;-81
2022/03/09 04:40:16;;;;;;;9.70;6.57;;;0.20;99.90;;;;;;5035561;28;20117;-81
2022/03/09 04:42:42;;;;;;;12.70;7.20;;;0.10;99.90;;;;;;5007978;28;20064;-81
2022/03/09 04:45:09;;;;;;;12.27;7.40;;;0.10;99.90;;;;;;5000294;28;20306;-81
2022/03/09 04:47:35;;;;;;;11.03;7.23;;;0.20;99.90;;;;;;5017814;28;20325;-81
2022/03/09 04:50:00;;;;;;;12.33;8.00;;;0.10;99.90;;;;;;5001494;28;20307;-81
2022/03/09 04:52:26;;;;;;;10.90;6.73;;;0.00;99.90;;;;;;5001002;28;20358;-81
2022/03/09 04:54:52;;;;;;;11.67;7.43;;;0.00;99.90;;;;;;5018125;28;20095;-81
2022/03/09 04:57:18;;;;;;;11.60;7.40;;;0.00;99.90;;;;;;5001132;28;20054;-82
2022/03/09 04:59:44;;;;;;;13.13;7.80;;;0.00;99.90;;;;;;5002010;28;20098;-81
2022/03/09 05:02:10;;;;;;;14.17;7.67;;;0.00;99.90;;;;;;5016527;28;20037;-81
2022/03/09 05:04:35;;;;;;;11.57;7.27;;;0.00;99.90;;;;;;5030973;28;20344;-80
2022/03/09 05:07:01;;;;;;;11.27;7.33;;;0.00;99.90;;;;;;5030717;28;20058;-81
2022/03/09 05:09:27;;;;;;;11.07;7.30;;;-0.10;99.90;;;;;;5016437;28;20048;-81
2022/03/09 05:11:53;;;;;;;12.90;7.00;;;-0.10;99.90;;;;;;4999708;28;20036;-81
2022/03/09 05:14:18;;;;;;;12.53;7.70;;;-0.10;99.90;;;;;;5032670;28;20037;-80
2022/03/09 05:16:44;;;;;;;12.13;7.47;;;-0.20;99.90;;;;;;5002452;28;20045;-81
2022/03/09 05:19:10;;;;;;;11.73;7.83;;;-0.20;99.90;;;;;;4983289;28;20135;-81
2022/03/09 05:21:36;;;;;;;12.47;7.37;;;-0.20;99.90;;;;;;5000388;28;20407;-81
2022/03/09 05:24:02;;;;;;;14.97;8.13;;;-0.30;99.90;;;;;;5033032;28;20084;-81
2022/03/09 05:26:28;;;;;;;11.90;7.80;;;-0.30;99.90;;;;;;5017032;28;20059;-81
2022/03/09 05:28:56;;;;;;;11.37;7.27;;;-0.20;99.90;;;;;;5017077;28;20284;-80
2022/03/09 05:31:22;;;;;;;14.87;8.20;;;-0.30;99.90;;;;;;5033976;28;20075;-80
2022/03/09 05:33:48;;;;;;;12.97;8.00;;;-0.30;99.90;;;;;;5016993;28;20275;-81
2022/03/09 05:36:14;;;;;;;13.43;7.37;;;-0.30;99.90;;;;;;5016784;28;20365;-81
2022/03/09 05:38:39;;;;;;;11.70;7.77;;;-0.30;99.90;;;;;;5032739;28;20029;-82
2022/03/09 05:41:05;;;;;;;12.33;7.70;;;-0.30;99.90;;;;;;5033377;28;20462;-80
2022/03/09 05:43:31;;;;;;;12.57;8.13;;;-0.20;99.90;;;;;;5016810;28;20041;-81
2022/03/09 05:45:57;;;;;;;13.13;8.30;;;-0.20;99.90;;;;;;5017166;28;20107;-81
2022/03/09 05:48:23;;;;;;;12.30;7.87;;;-0.20;99.90;;;;;;5000479;28;20481;-81
2022/03/09 05:50:48;;;;;;;13.60;8.93;;;-0.20;99.90;;;;;;5000882;28;20037;-81
2022/03/09 05:53:14;;;;;;;14.80;8.03;;;-0.30;99.90;;;;;;5001124;28;20041;-82
2022/03/09 05:55:40;;;;;;;12.70;7.40;;;-0.20;99.90;;;;;;5017303;28;20504;-81
2022/03/09 05:58:06;;;;;;;13.17;7.73;;;-0.20;99.90;;;;;;5000289;28;20037;-80
2022/03/09 06:00:32;;;;;;;15.03;8.33;;;-0.20;99.90;;;;;;5000797;28;21700;-82
2022/03/09 06:02:57;;;;;;;15.40;8.43;;;-0.20;99.90;;;;;;5016362;28;20051;-81
2022/03/09 06:05:23;;;;;;;13.33;8.37;;;-0.30;99.90;;;;;;4983224;28;20757;-81
2022/03/09 06:07:49;;;;;;;11.53;8.10;;;-0.30;99.90;;;;;;4984201;28;20044;-81
2022/03/09 06:10:15;;;;;;;13.00;7.60;;;-0.30;99.90;;;;;;5000058;28;20179;-81
2022/03/09 06:12:41;;;;;;;12.47;8.17;;;-0.30;99.90;;;;;;5016463;28;20825;-81
2022/03/09 06:15:07;;;;;;;14.43;7.80;;;-0.30;99.90;;;;;;5016680;28;20033;-81
2022/03/09 06:17:41;;;;;;;11.80;7.87;;;-0.30;99.90;;;;;;4999722;28;20099;-80
2022/03/09 06:20:08;;;;;;;12.47;8.17;;;-0.30;99.90;;;;;;5033981;28;20279;-81
2022/03/09 06:22:33;;;;;;;12.47;8.33;;;-0.30;99.90;;;;;;5001516;28;20759;-81
2022/03/09 06:24:59;;;;;;;11.13;7.27;;;-0.30;99.90;;;;;;5017509;28;20296;-80
2022/03/09 06:27:25;;;;;;;11.70;7.97;;;-0.30;99.90;;;;;;4986602;28;20136;-81
2022/03/09 06:29:50;;;;;;;14.33;7.90;;;-0.20;99.90;;;;;;4988103;28;20037;-81
2022/03/09 06:32:16;;;;;;;14.33;7.93;;;-0.20;99.90;;;;;;4988195;28;20539;-81
2022/03/09 06:34:42;;;;;;;14.23;8.70;;;-0.20;99.90;;;;;;5004136;28;20037;-80
2022/03/09 06:37:08;;;;;;;20.60;14.13;;;-0.10;99.90;;;;;;5036640;28;20120;-81
2022/03/09 06:39:33;;;;;;;18.03;10.40;;;-0.10;99.90;;;;;;4985073;28;20037;-80
2022/03/09 06:41:59;;;;;;;14.83;8.60;;;0.00;99.90;;;;;;4999582;28;20051;-80
2022/03/09 06:44:25;;;;;;;12.27;8.00;;;0.20;99.90;;;;;;5003830;28;20098;-81
2022/03/09 06:46:50;;;;;;;13.90;8.17;;;0.20;99.90;;;;;;4987551;28;20085;-80
2022/03/09 06:49:16;;;;;;;12.40;8.90;;;0.30;99.90;;;;;;5002629;28;20080;-81
2022/03/09 06:51:42;;;;;;;12.87;8.30;;;0.40;99.90;;;;;;5019608;28;20052;-81
2022/03/09 06:54:07;;;;;;;13.07;8.00;;;0.40;99.90;;;;;;5000364;28;20037;-80
2022/03/09 06:56:33;;;;;;;11.80;7.63;;;0.60;99.90;;;;;;5017084;28;20132;-80
2022/03/09 06:58:59;;;;;;;16.03;7.90;;;0.60;99.90;;;;;;5020577;28;20167;-79
2022/03/09 07:01:25;;;;;;;12.40;7.43;;;0.70;99.90;;;;;;5002448;28;20037;-78
2022/03/09 07:03:50;;;;;;;13.90;8.13;;;0.80;99.90;;;;;;5020406;28;20041;-80
2022/03/09 07:06:16;;;;;;;13.67;8.03;;;0.90;99.90;;;;;;5019664;28;20028;-80
2022/03/09 07:08:42;;;;;;;13.97;7.90;;;0.90;99.90;;;;;;5019021;28;20040;-81
2022/03/09 07:11:07;;;;;;;14.87;7.80;;;1.00;99.90;;;;;;5003280;28;20090;-81
2022/03/09 07:13:34;;;;;;;17.10;8.57;;;1.10;99.90;;;;;;4987003;28;20040;-80
2022/03/09 07:15:59;;;;;;;12.13;7.80;;;1.20;99.90;;;;;;5036219;28;20037;-81
2022/03/09 07:18:25;;;;;;;15.87;8.33;;;1.20;99.90;;;;;;5020073;28;20362;-81
2022/03/09 07:20:51;;;;;;;13.67;8.37;;;1.30;99.90;;;;;;5003938;28;20053;-80
2022/03/09 07:23:16;;;;;;;15.83;9.30;;;1.30;99.90;;;;;;5035965;28;20798;-81
2022/03/09 07:25:43;;;;;;;12.60;8.10;;;1.40;99.90;;;;;;5054186;28;20045;-80
2022/03/09 07:28:09;;;;;;;12.53;7.97;;;1.40;99.90;;;;;;5053672;28;20132;-80
2022/03/09 07:30:35;;;;;;;12.87;8.03;;;1.50;99.90;;;;;;5018814;28;20386;-79
2022/03/09 07:33:00;;;;;;;14.23;8.10;;;1.50;99.90;;;;;;5034314;28;20041;-79
2022/03/09 07:35:26;;;;;;;17.27;8.87;;;1.60;99.90;;;;;;5001767;28;20678;-80
2022/03/09 07:37:52;;;;;;;15.50;8.03;;;1.70;99.90;;;;;;5017791;28;20025;-79
2022/03/09 07:40:18;;;;;;;13.20;8.03;;;1.70;99.90;;;;;;5018095;28;20805;-79
2022/03/09 07:42:44;;;;;;;13.17;8.63;;;1.80;99.90;;;;;;5017838;28;20063;-79
2022/03/09 07:45:10;;;;;;;13.13;8.27;;;1.90;99.90;;;;;;5018543;28;20033;-79
2022/03/09 07:47:36;;;;;;;11.83;7.67;;;2.00;99.90;;;;;;5003584;28;20040;-79
2022/03/09 07:50:03;;;;;;;13.23;8.97;;;2.10;99.90;;;;;;5008986;28;20045;-80
2022/03/09 07:52:29;;;;;;;14.37;8.53;;;2.20;99.90;;;;;;5034397;28;20279;-79
2022/03/09 07:54:55;;;;;;;12.37;7.70;;;2.20;99.90;;;;;;5001257;28;21146;-80
2022/03/09 07:57:20;;;;;;;13.57;8.40;;;2.30;99.90;;;;;;4995680;28;20541;-79
2022/03/09 07:59:46;;;;;;;14.40;7.83;;;2.40;99.90;;;;;;5002132;28;20079;-79
2022/03/09 08:02:12;;;;;;;13.60;7.77;;;2.50;99.90;;;;;;5018151;28;20036;-80
2022/03/09 08:04:39;;;;;;;12.43;8.33;;;2.60;99.90;;;;;;5017758;28;20037;-80
2022/03/09 08:07:04;;;;;;;14.53;8.97;;;2.60;99.90;;;;;;5001651;28;20704;-80
2022/03/09 08:09:30;;;;;;;15.07;8.33;;;2.70;99.90;;;;;;5001999;28;20402;-80
2022/03/09 08:11:56;;;;;;;12.60;8.47;;;2.80;99.90;;;;;;5000925;28;20070;-79
2022/03/09 08:14:21;;;;;;;12.20;7.93;;;2.90;99.90;;;;;;5002179;28;20076;-80
2022/03/09 08:16:48;;;;;;;15.07;8.23;;;3.10;99.90;;;;;;5017950;28;20044;-79
2022/03/09 08:19:14;;;;;;;16.67;8.33;;;3.10;99.90;;;;;;5018004;28;20079;-80
2022/03/09 08:21:40;;;;;;;14.13;8.37;;;3.30;99.90;;;;;;5017950;28;20307;-79
2022/03/09 08:24:07;;;;;;;12.23;7.63;;;3.40;99.90;;;;;;4999462;28;20040;-80
2022/03/09 08:26:33;;;;;;;11.13;7.97;;;3.40;99.90;;;;;;5029460;28;20053;-80
2022/03/09 08:28:58;;;;;;;12.23;7.90;;;3.50;99.90;;;;;;5013393;28;20083;-80
2022/03/09 08:31:25;;;;;;;12.77;8.50;;;3.70;99.90;;;;;;5030341;28;20053;-79
2022/03/09 08:33:50;;;;;;;12.27;7.60;;;3.80;99.90;;;;;;5013261;28;20041;-79
2022/03/09 08:36:16;;;;;;;13.40;8.27;;;3.90;99.90;;;;;;5029342;28;20103;-80
2022/03/09 08:38:42;;;;;;;13.07;8.37;;;4.10;99.90;;;;;;4997747;28;20048;-80
2022/03/09 08:41:08;;;;;;;14.03;7.90;;;4.10;99.90;;;;;;5013600;28;20049;-79
2022/03/09 08:43:33;;;;;;;11.97;7.23;;;4.20;99.90;;;;;;4998080;28;20045;-80
2022/03/09 08:46:00;;;;;;;11.97;8.37;;;4.30;99.90;;;;;;4981553;28;20038;-80
2022/03/09 08:48:26;;;;;;;12.67;7.80;;;4.30;99.90;;;;;;5013494;28;20120;-80
2022/03/09 08:50:53;;;;;;;14.37;8.47;;;4.40;99.90;;;;;;5013266;28;20147;-80
2022/03/09 08:53:19;;;;;;;12.07;8.07;;;4.60;99.90;;;;;;5013427;28;20563;-80
2022/03/09 08:55:45;;;;;;;15.13;7.97;;;4.60;99.90;;;;;;4996036;28;20075;-80
2022/03/09 08:58:11;;;;;;;13.53;8.07;;;4.70;99.90;;;;;;4982222;28;20124;-80
2022/03/09 09:00:36;;;;;;;13.13;7.67;;;4.80;99.90;;;;;;4996877;28;20833;-80
2022/03/09 09:03:03;;;;;;;12.83;7.73;;;4.90;99.90;;;;;;5013430;28;20045;-80
2022/03/09 09:05:28;;;;;;;13.40;8.90;;;5.00;99.90;;;;;;5029349;28;20107;-80
2022/03/09 09:07:54;;;;;;;10.93;7.20;;;5.10;99.90;;;;;;4993606;28;20042;-79
2022/03/09 09:10:20;;;;;;;13.37;8.43;;;5.30;99.90;;;;;;5018601;28;20061;-80
2022/03/09 09:12:46;;;;;;;12.13;7.83;;;5.30;99.90;;;;;;5011502;28;20571;-80
2022/03/09 09:15:12;;;;;;;13.67;8.23;;;5.50;99.90;;;;;;5004087;28;20064;-81
2022/03/09 09:17:37;;;;;;;15.60;8.70;;;5.60;99.90;;;;;;5013661;28;20083;-80
2022/03/09 09:20:04;;;;;;;11.83;7.30;;;5.70;99.90;;;;;;5029801;28;20040;-80
2022/03/09 09:22:30;;;;;;;11.00;7.13;;;5.90;99.90;;;;;;5013668;28;20198;-80
2022/03/09 09:24:56;;;;;;;10.83;7.33;;;6.00;99.90;;;;;;4992287;28;20124;-79
2022/03/09 09:27:22;;;;;;;12.67;6.43;;;6.30;94.50;;;;;;4990674;28;20487;-79
2022/03/09 09:29:48;;;;;;;13.70;7.50;;;6.60;91.40;;;;;;5011870;28;20125;-80
2022/03/09 09:32:16;;;;;;;15.43;6.40;;;6.70;86.50;;;;;;4978998;28;20042;-79
2022/03/09 09:34:42;;;;;;;10.03;6.83;;;6.80;84.90;;;;;;5012427;28;20060;-80
2022/03/09 09:37:07;;;;;;;12.03;6.53;;;7.00;82.90;;;;;;4983666;28;20030;-79
2022/03/09 09:39:33;;;;;;;10.47;7.30;;;7.10;81.50;;;;;;4977188;28;20049;-79
2022/03/09 09:41:59;;;;;;;15.60;8.10;;;7.20;78.20;;;;;;4998656;28;20053;-79
2022/03/09 09:44:25;;;;;;;10.97;6.60;;;7.30;78.80;;;;;;5003476;28;20088;-78
2022/03/09 09:46:53;;;;;;;17.03;8.83;;;7.50;77.30;;;;;;5014510;28;20045;-78
2022/03/09 09:49:24;;;;;;;13.77;7.27;;;7.60;77.30;;;;;;5012438;28;20672;-80
2022/03/09 09:51:52;;;;;;;9.50;6.20;;;7.70;77.90;;;;;;4997982;28;20424;-80
2022/03/09 09:54:19;;;;;;;11.77;6.73;;;7.80;76.50;;;;;;4994620;28;20053;-79
2022/03/09 09:56:45;;;;;;;11.33;7.23;;;7.90;75.70;;;;;;5000267;28;20053;-81
2022/03/09 09:59:11;;;;;;;12.80;6.87;;;8.00;75.70;;;;;;5002428;28;20056;-80
2022/03/09 10:01:39;;;;;;;11.50;7.53;;;8.10;74.10;;;;;;5032094;28;20396;-79
2022/03/09 10:04:06;;;;;;;9.90;6.43;;;8.20;73.60;;;;;;5033461;28;20041;-80
2022/03/09 10:06:33;;;;;;;13.03;6.97;;;8.30;72.70;;;;;;5015912;28;20041;-80
2022/03/09 10:09:11;;;;;;;10.93;7.13;;;8.30;72.30;;;;;;4984603;28;20045;-80
2022/03/09 10:11:52;;;;;;;10.83;7.23;;;8.50;69.90;;;;;;5016428;28;20124;-80
2022/03/09 10:14:43;;;;;;;10.88;7.00;;;8.60;71.10;;;;;;5013815;28;20548;-80
2022/03/09 10:17:30;;;;;;;11.77;6.90;;;8.70;70.20;;;;;;5029508;28;20528;-80
2022/03/09 10:20:06;;;;;;;10.33;7.13;;;8.70;70.70;;;;;;5016140;28;20049;-81
2022/03/09 10:22:35;;;;;;;11.40;7.10;;;8.80;68.90;;;;;;4998522;28;20236;-80
2022/03/09 10:25:17;;;;;;;12.03;7.43;;;8.90;68.50;;;;;;5014575;28;20041;-80
2022/03/09 10:27:49;;;;;;;12.83;7.63;;;8.90;66.30;;;;;;5015266;28;20595;-80
2022/03/09 10:30:19;;;;;;;11.80;7.57;;;9.00;66.90;;;;;;5031643;28;20053;-80
2022/03/09 10:32:45;;;;;;;11.77;6.87;;;9.00;66.80;;;;;;5016796;28;20069;-80
2022/03/09 10:35:12;;;;;;;9.03;6.33;;;9.10;67.10;;;;;;5015810;28;20077;-80
2022/03/09 10:37:40;;;;;;;12.00;7.33;;;9.20;67.20;;;;;;4998925;28;20131;-81
2022/03/09 10:40:14;;;;;;;12.97;7.43;;;9.20;66.10;;;;;;5015001;28;20044;-80
2022/03/09 10:42:40;;;;;;;10.70;7.00;;;9.40;64.20;;;;;;5015248;28;20053;-81
2022/03/09 10:45:08;;;;;;;11.47;6.80;;;9.40;65.40;;;;;;5014714;28;20084;-80
2022/03/09 10:47:42;;;;;;;10.83;7.33;;;9.50;64.90;;;;;;5030690;28;20105;-80
2022/03/09 10:50:18;;;;;;;9.60;7.30;;;9.60;64.10;;;;;;5007127;28;20077;-79
2022/03/09 10:52:49;;;;;;;10.97;6.63;;;9.60;63.60;;;;;;5031595;28;20077;-81
2022/03/09 10:55:26;;;;;;;13.20;7.97;;;9.70;64.20;;;;;;5031713;28;20124;-80
2022/03/09 10:58:07;;;;;;;11.67;7.67;;;9.70;63.60;;;;;;5015483;28;20120;-80
2022/03/09 11:00:37;;;;;;;12.03;6.97;;;9.70;63.10;;;;;;5012645;28;20049;-80
2022/03/09 11:03:08;;;;;;;12.83;7.33;;;9.80;62.80;;;;;;5016230;28;20535;-80
2022/03/09 11:05:35;;;;;;;9.75;7.18;;;9.90;63.20;;;;;;5006688;28;20508;-81
2022/03/09 11:08:02;;;;;;;13.07;8.50;;;10.00;63.10;;;;;;5035635;28;20045;-81
2022/03/09 11:10:29;;;;;;;11.23;6.90;;;10.10;62.50;;;;;;5003375;28;20045;-80
2022/03/09 11:12:56;;;;;;;12.93;7.50;;;10.20;63.50;;;;;;5018511;28;20036;-80
2022/03/09 11:15:23;;;;;;;11.40;7.87;;;10.30;63.10;;;;;;5035690;28;20411;-80
2022/03/09 11:17:49;;;;;;;11.07;7.43;;;10.40;62.80;;;;;;5053613;28;20041;-80
2022/03/09 11:20:18;;;;;;;12.73;8.07;;;10.50;62.60;;;;;;5036452;28;20060;-80
2022/03/09 11:22:44;;;;;;;11.83;7.57;;;10.50;61.70;;;;;;5036574;28;20370;-80
2022/03/09 11:25:10;;;;;;;11.77;7.83;;;10.60;61.50;;;;;;5020001;28;20055;-80
2022/03/09 11:27:45;;;;;;;14.33;7.97;;;10.60;61.60;;;;;;5036593;28;20052;-87
2022/03/09 11:30:22;;;;;;;11.40;8.03;;;10.70;60.80;;;;;;5020934;28;20172;-88
2022/03/09 11:32:47;;;;;;;11.83;7.80;;;10.70;59.60;;;;;;5021200;28;20655;-88
2022/03/09 11:35:29;;;;;;;15.13;7.50;;;10.70;60.40;;;;;;4996851;28;20065;-88
2022/03/09 11:37:55;;;;;;;11.98;7.65;;;10.90;59.30;;;;;;5032037;28;20496;-88
2022/03/09 11:40:21;;;;;;;11.93;7.87;;;11.00;60.40;;;;;;5037836;28;20048;-87
2022/03/09 11:42:47;;;;;;;12.57;7.83;;;11.00;59.90;;;;;;5016694;28;20194;-87
2022/03/09 11:45:29;;;;;;;11.57;8.03;;;10.90;59.40;;;;;;5006015;28;20069;-88
2022/03/09 11:48:00;;;;;;;10.93;8.20;;;10.90;59.10;;;;;;4996446;28;20103;-88
2022/03/09 11:50:27;;;;;;;11.67;7.70;;;11.00;58.90;;;;;;5001435;28;20516;-88
2022/03/09 11:53:14;;;;;;;11.67;8.23;;;11.00;58.30;;;;;;5004120;28;20049;-88
2022/03/09 11:55:40;;;;;;;13.17;8.43;;;11.00;57.20;;;;;;5037164;28;20746;-89
2022/03/09 11:58:13;;;;;;;13.77;7.63;;;11.00;58.80;;;;;;5004234;28;20033;-88
2022/03/09 12:01:03;;;;;;;11.27;7.60;;;11.10;58.70;;;;;;5004376;28;20106;-89
2022/03/09 12:03:37;;;;;;;12.77;7.93;;;11.10;58.00;;;;;;5037249;28;20056;-88
2022/03/09 12:06:03;;;;;;;12.53;8.07;;;11.20;58.70;;;;;;5020638;28;20047;-86
2022/03/09 12:08:45;;;;;;;13.83;8.10;;;11.10;58.70;;;;;;5020711;28;20044;-88
2022/03/09 12:11:11;;;;;;;10.13;7.83;;;11.20;57.80;;;;;;5000710;28;20064;-88
2022/03/09 12:13:45;;;;;;;12.47;7.90;;;11.30;58.10;;;;;;5002372;28;20827;-88
2022/03/09 12:16:17;;;;;;;13.43;7.73;;;11.30;57.50;;;;;;5004604;28;20045;-88
2022/03/09 12:18:56;;;;;;;15.15;7.57;;;11.30;57.00;;;;;;5020768;28;20041;-88
2022/03/09 12:21:32;;;;;;;10.57;7.23;;;11.40;57.20;;;;;;5020266;28;20606;-86
2022/03/09 12:24:04;;;;;;;11.67;7.87;;;11.50;56.70;;;;;;5019262;28;20102;-88
2022/03/09 12:26:57;;;;;;;10.63;7.97;;;11.60;56.30;;;;;;5036809;28;20044;-87
2022/03/09 12:29:29;;;;;;;12.13;8.47;;;11.70;55.80;;;;;;5028848;28;20079;-86
2022/03/09 12:32:10;;;;;;;11.45;7.93;;;11.80;56.40;;;;;;5030245;28;20033;-89
2022/03/09 12:34:47;;;;;;;11.20;7.40;;;11.90;56.10;;;;;;5013787;28;20068;-87
2022/03/09 12:37:18;;;;;;;12.33;8.53;;;11.90;56.20;;;;;;5000820;28;20052;-87
2022/03/09 12:39:58;;;;;;;10.40;7.40;;;12.00;56.30;;;;;;5001953;28;20100;-87
2022/03/09 12:42:24;;;;;;;11.10;8.03;;;12.10;55.40;;;;;;5020018;28;20063;-87
2022/03/09 12:45:00;;;;;;;10.20;7.67;;;12.20;54.90;;;;;;5147941;27;1307916;-77
2022/03/09 12:47:26;;;;;;;12.43;7.17;;;12.20;54.20;;;;;;5132312;27;20050;-77
2022/03/09 12:49:52;;;;;;;11.13;7.73;;;12.30;53.80;;;;;;5105301;27;20118;-77
2022/03/09 12:52:21;;;;;;;10.70;7.37;;;12.30;53.50;;;;;;5105544;27;20489;-78